KMCC/MCC METAR and TAF weather

Enter ICAO airport designator
Station Type Date Time Source
KMCC METAR 2020/08/05 15:35 UTC NOAA

KMCC 051535Z AUTO 20011KT 10SM OVC014 17/13 A2991 RMK AO2


Station Type Date Time Source
KMCC Decoded METAR 2020/08/05 15:35 UTC NOAA

Sacramento, McClellan Airfield Airport, CA, United States (KMCC) 38-40N 121-24W
Aug 05, 2020 - 11:35 AM EDT / 2020.08.05 1535 UTC
Wind: from the SSW (200 degrees) at 13 MPH (11 KT):0
Visibility: 10 mile(s):0
Sky conditions: overcast
Temperature: 62 F (17 C)
Dew Point: 55 F (13 C)
Relative Humidity: 77%
Pressure (altimeter): 29.91 in. Hg (1012 hPa)
ob: KMCC 051535Z AUTO 20011KT 10SM OVC014 17/13 A2991 RMK AO2
cycle: 15

Station Type Date Time Source
KMCC TAF 2020/08/05 15:40 UTC NOAA

TAF
AMD KMCC 051525Z 0515/0612 19013KT P6SM SCT015
TEMPO 0515/0517 OVC013
FM051800 18014G21KT P6SM FEW250
FM060100 18014KT P6SM SKC
FM060900 16010KT P6SM SKC

Example: see airport list